createdAt,value
2018-08-07T00:00:05.373Z,19.2
2018-08-07T00:05:02.408Z,19.2
2018-08-07T00:10:05.795Z,18.9
2018-08-07T00:15:02.628Z,18.9
2018-08-07T00:20:10.546Z,18.7
2018-08-07T00:25:10.924Z,18.6
2018-08-07T00:30:03.283Z,18.6
2018-08-07T00:35:07.623Z,18.4
2018-08-07T00:40:02.405Z,18.4
2018-08-07T00:45:05.298Z,18.3
2018-08-07T00:50:05.174Z,18.2
2018-08-07T00:55:05.635Z,18.1
2018-08-07T01:00:10.596Z,18
2018-08-07T01:05:03.266Z,18
2018-08-07T01:10:15.694Z,17.8
2018-08-07T01:15:02.421Z,17.8
2018-08-07T01:20:02.877Z,17.8
2018-08-07T01:25:03.280Z,17.7
2018-08-07T01:30:07.694Z,17.6
2018-08-07T01:35:02.944Z,17.6
2018-08-07T01:40:12.869Z,17.5
2018-08-07T01:45:03.047Z,17.4
2018-08-07T01:50:02.574Z,17.4
2018-08-07T01:55:02.757Z,17.3
2018-08-07T02:00:03.178Z,17.3
2018-08-07T02:05:02.431Z,17.2
2018-08-07T02:10:13.340Z,17.1
2018-08-07T02:15:05.114Z,17
2018-08-07T02:20:02.629Z,17
2018-08-07T02:25:02.848Z,17
2018-08-07T02:30:05.676Z,16.9
2018-08-07T02:35:07.628Z,16.8
2018-08-07T02:40:07.551Z,16.9
2018-08-07T02:45:05.299Z,16.9
2018-08-07T02:50:07.737Z,16.8
2018-08-07T02:55:05.478Z,16.8
2018-08-07T03:00:10.421Z,16.8
2018-08-07T03:05:15.853Z,16.7
2018-08-07T03:10:10.239Z,16.8
2018-08-07T03:15:05.515Z,16.8
2018-08-07T03:20:02.857Z,16.8
2018-08-07T03:25:03.237Z,16.8
2018-08-07T03:30:02.687Z,16.7
2018-08-07T03:35:05.567Z,16.6
2018-08-07T03:40:07.463Z,16.6
2018-08-07T03:45:17.909Z,16.6
2018-08-07T03:50:03.204Z,16.6
2018-08-07T03:55:02.536Z,16.6
2018-08-07T04:00:02.835Z,16.6
2018-08-07T04:05:02.514Z,16.7
2018-08-07T04:10:12.678Z,16.7
2018-08-07T04:15:05.489Z,16.8
2018-08-07T04:20:02.837Z,16.8
2018-08-07T04:25:10.778Z,16.8
2018-08-07T04:30:08.117Z,16.8
2018-08-07T04:35:15.087Z,16.9
2018-08-07T04:40:15.899Z,17
2018-08-07T04:45:05.125Z,17.1
2018-08-07T04:50:02.466Z,17
2018-08-07T04:55:07.862Z,17.3
2018-08-07T05:00:05.767Z,17.4
2018-08-07T05:05:02.539Z,17.4
2018-08-07T05:10:07.434Z,17.7
2018-08-07T05:15:02.984Z,17.7
2018-08-07T05:20:02.407Z,17.9
2018-08-07T05:25:02.676Z,18
2018-08-07T05:30:03.078Z,18.1
2018-08-07T05:35:15.083Z,18.3
2018-08-07T05:40:02.846Z,18.3
2018-08-07T05:45:02.420Z,18.5
2018-08-07T05:50:05.414Z,18.7
2018-08-07T05:55:02.463Z,18.7
2018-08-07T06:00:10.459Z,18.9
2018-08-07T06:05:05.768Z,19.1
2018-08-07T06:10:02.540Z,19.1
2018-08-07T06:15:05.444Z,19.3
2018-08-07T06:20:07.972Z,19.5
2018-08-07T06:25:05.796Z,19.6
2018-08-07T06:30:18.533Z,19.7
2018-08-07T06:35:05.276Z,19.9
2018-08-07T06:40:05.709Z,20
2018-08-07T06:45:02.408Z,20
2018-08-07T06:50:02.714Z,20.2
2018-08-07T06:55:05.888Z,20.5
2018-08-07T07:00:03.276Z,20.5
2018-08-07T07:05:02.658Z,20.7
2018-08-07T07:10:02.430Z,20.8
2018-08-07T07:15:05.355Z,21.2
2018-08-07T07:20:07.887Z,21.4
2018-08-07T07:25:05.652Z,21.6
2018-08-07T07:30:02.970Z,21.6
2018-08-07T07:35:05.154Z,21.9
2018-08-07T07:40:05.505Z,22.1
2018-08-07T07:45:08.411Z,22.3
2018-08-07T07:50:20.446Z,22.5
2018-08-07T07:55:05.686Z,22.7
2018-08-07T08:00:03.172Z,22.7
2018-08-07T08:05:02.491Z,23
2018-08-07T08:10:02.418Z,23.1
2018-08-07T08:15:02.745Z,23.3
2018-08-07T08:20:03.228Z,23.5
2018-08-07T08:25:15.267Z,23.8
2018-08-07T08:30:10.360Z,24.1
2018-08-07T08:35:03.242Z,24.1
2018-08-07T08:40:05.157Z,24.4
2018-08-07T08:45:05.514Z,24.6
2018-08-07T08:50:18.226Z,24.8
2018-08-07T08:55:02.472Z,24.8
2018-08-07T09:00:02.867Z,24.9
2018-08-07T09:05:03.413Z,25.3
2018-08-07T09:10:13.488Z,25.7
2018-08-07T09:15:03.029Z,25.7
2018-08-07T09:20:05.119Z,25.9
2018-08-07T09:25:02.961Z,25.9
2018-08-07T09:30:05.867Z,26.3
2018-08-07T09:35:20.453Z,26.4
2018-08-07T09:40:10.936Z,26.7
2018-08-07T09:45:07.894Z,26.9
2018-08-07T09:50:05.767Z,27
2018-08-07T09:55:12.936Z,27.2
2018-08-07T10:00:20.980Z,27.2
2018-08-07T10:05:02.752Z,27.2
2018-08-07T10:10:02.708Z,27.4
2018-08-07T10:15:05.591Z,27.7
2018-08-07T10:20:05.618Z,28
2018-08-07T10:25:07.584Z,28.1
2018-08-07T10:30:02.977Z,28.1
2018-08-07T10:35:04.922Z,28.6
2018-08-07T10:40:02.899Z,28.6
2018-08-07T10:45:02.435Z,28.7
2018-08-07T10:50:18.142Z,29.1
2018-08-07T10:55:02.525Z,29.1
2018-08-07T11:00:08.053Z,29.4
2018-08-07T11:05:02.435Z,29.4
2018-08-07T11:10:08.376Z,29.7
2018-08-07T11:15:07.879Z,29.7
2018-08-07T11:20:05.894Z,29.9
2018-08-07T11:25:02.765Z,29.8
2018-08-07T11:30:03.296Z,30
2018-08-07T11:35:02.582Z,30.5
2018-08-07T11:40:04.974Z,30.8
2018-08-07T11:45:02.878Z,30.8
2018-08-07T11:50:02.477Z,31
2018-08-07T11:55:02.925Z,31.3
2018-08-07T12:00:08.419Z,31.7
2018-08-07T12:05:02.911Z,31.7
2018-08-07T12:10:02.780Z,31.9
2018-08-07T12:15:03.172Z,32.1
2018-08-07T12:20:10.453Z,32.5
2018-08-07T12:25:03.268Z,32.5
2018-08-07T12:30:02.661Z,32.7
2018-08-07T12:35:05.741Z,33
2018-08-07T12:40:02.685Z,33
2018-08-07T12:45:03.141Z,33.2
2018-08-07T12:50:02.630Z,33.4
2018-08-07T12:55:13.256Z,33.3
2018-08-07T13:00:15.328Z,33.7
2018-08-07T13:05:05.712Z,34
2018-08-07T13:10:12.686Z,34
2018-08-07T13:15:03.178Z,34
2018-08-07T13:20:30.519Z,34.3
2018-08-07T13:25:10.499Z,34.5
2018-08-07T13:30:03.017Z,34.5
2018-08-07T13:35:02.450Z,34.6
2018-08-07T13:40:08.497Z,35
2018-08-07T13:45:02.942Z,35
2018-08-07T13:50:20.075Z,34.9
2018-08-07T13:55:02.849Z,34.9
2018-08-07T14:00:08.332Z,34.1
2018-08-07T14:05:07.886Z,34.4
2018-08-07T14:10:07.901Z,34.5
2018-08-07T14:15:08.360Z,34.6
2018-08-07T14:20:05.448Z,34.7
2018-08-07T14:25:02.384Z,34.6
2018-08-07T14:30:05.322Z,35
2018-08-07T14:35:03.318Z,35
2018-08-07T14:40:05.793Z,35.6
2018-08-07T14:45:05.602Z,35.8
2018-08-07T14:50:03.016Z,35.7
2018-08-07T14:55:02.567Z,35.9
2018-08-07T15:00:03.014Z,36.1
2018-08-07T15:05:05.319Z,36.3
2018-08-07T15:10:04.899Z,36.1
2018-08-07T15:15:07.941Z,36.2
2018-08-07T15:20:05.007Z,36
2018-08-07T15:25:03.025Z,35.9
2018-08-07T15:30:02.577Z,35.7
2018-08-07T15:35:03.025Z,36.3
2018-08-07T15:40:02.933Z,37.3
2018-08-07T15:45:05.049Z,37.1
2018-08-07T15:50:02.593Z,37.1
2018-08-07T15:55:08.133Z,36.6
2018-08-07T16:00:05.082Z,36.8
2018-08-07T16:05:03.172Z,36.7
2018-08-07T16:10:03.150Z,37.5
2018-08-07T16:15:05.266Z,39
2018-08-07T16:20:02.907Z,38.9
2018-08-07T16:25:05.052Z,37.2
2018-08-07T16:30:02.606Z,37.2
2018-08-07T16:35:02.347Z,36.5
2018-08-07T16:40:05.828Z,36
2018-08-07T16:45:02.787Z,36
2018-08-07T16:50:03.192Z,35.8
2018-08-07T16:55:02.765Z,35.5
2018-08-07T17:00:08.307Z,34.8
2018-08-07T17:05:02.817Z,34.8
2018-08-07T17:10:02.764Z,34.6
2018-08-07T17:15:08.347Z,34.1
2018-08-07T17:20:02.880Z,34.1
2018-08-07T17:25:02.568Z,33.9
2018-08-07T17:30:03.022Z,33.8
2018-08-07T17:35:07.553Z,33.7
2018-08-07T17:40:02.437Z,33.6
2018-08-07T17:45:10.479Z,33.2
2018-08-07T17:50:07.912Z,33
2018-08-07T17:55:04.979Z,32.7
2018-08-07T18:00:03.353Z,32.7
2018-08-07T18:05:07.933Z,32.2
2018-08-07T18:10:05.359Z,32
2018-08-07T18:15:03.328Z,32
2018-08-07T18:20:18.002Z,31.6
2018-08-07T18:25:02.360Z,31.6
2018-08-07T18:30:02.790Z,31.5
2018-08-07T18:35:10.911Z,31.1
2018-08-07T18:40:07.856Z,30.9
2018-08-07T18:45:28.572Z,30.8
2018-08-07T18:50:02.907Z,30.8
2018-08-07T18:55:07.487Z,30.6
2018-08-07T19:00:02.900Z,30.6
2018-08-07T19:05:02.428Z,30.5
2018-08-07T19:10:08.355Z,30.3
2018-08-07T19:15:02.740Z,30.3
2018-08-07T19:20:05.857Z,30
2018-08-07T19:25:02.925Z,30
2018-08-07T19:30:03.291Z,29.9
2018-08-07T19:35:05.326Z,29.7
2018-08-07T19:40:05.698Z,29.6
2018-08-07T19:45:05.460Z,29.4
2018-08-07T19:50:05.345Z,29.3
2018-08-07T19:55:03.220Z,29.3
2018-08-07T20:00:02.619Z,29.2
2018-08-07T20:05:03.112Z,29.1
2018-08-07T20:10:08.106Z,28.9
2018-08-07T20:15:05.907Z,28.9
2018-08-07T20:20:07.454Z,28.7
2018-08-07T20:25:05.539Z,28.6
2018-08-07T20:30:02.916Z,28.6
2018-08-07T20:35:03.345Z,28.5
2018-08-07T20:40:05.786Z,28.3
2018-08-07T20:45:05.205Z,28.2
2018-08-07T20:50:05.220Z,28.1
2018-08-07T20:55:03.192Z,28.1
2018-08-07T21:00:02.609Z,28
2018-08-07T21:05:03.076Z,27.8
2018-08-07T21:10:03.046Z,27.6
2018-08-07T21:15:04.967Z,27.2
2018-08-07T21:20:02.671Z,27.2
2018-08-07T21:25:03.172Z,27
2018-08-07T21:30:07.637Z,26.8
2018-08-07T21:35:03.123Z,26.8
2018-08-07T21:40:03.139Z,26.7
2018-08-07T21:45:05.197Z,26.6
2018-08-07T21:50:05.168Z,26.4
2018-08-07T21:55:05.619Z,26.3
2018-08-07T22:00:03.028Z,26.3
2018-08-07T22:05:05.056Z,26.1
2018-08-07T22:10:05.467Z,26
2018-08-07T22:15:17.536Z,25.9
2018-08-07T22:20:03.085Z,25.9
2018-08-07T22:25:17.638Z,25.8
2018-08-07T22:30:03.074Z,25.8
2018-08-07T22:35:04.956Z,25.8
2018-08-07T22:40:02.808Z,25.7
2018-08-07T22:45:05.786Z,25.7
2018-08-07T22:50:03.119Z,25.7
2018-08-07T22:55:02.592Z,25.7
2018-08-07T23:00:03.142Z,25.7
2018-08-07T23:05:03.068Z,25.7
2018-08-07T23:10:05.470Z,25.5
2018-08-07T23:15:05.826Z,25.5
2018-08-07T23:20:03.317Z,25.4
2018-08-07T23:25:02.839Z,25.5
2018-08-07T23:30:05.707Z,25.4
2018-08-07T23:35:05.076Z,25.4
2018-08-07T23:40:08.006Z,25.3
2018-08-07T23:45:07.432Z,25.2
2018-08-07T23:50:10.491Z,0.4
2018-08-07T23:55:03.297Z,25.2
